createdAt,value
2018-07-13T00:00:12.177Z,96.70
2018-07-13T00:02:41.071Z,96.70
2018-07-13T00:05:10.995Z,96.80
2018-07-13T00:07:39.529Z,97.00
2018-07-13T00:10:08.079Z,97.00
2018-07-13T00:12:36.773Z,97.10
2018-07-13T00:15:08.548Z,97.10
2018-07-13T00:17:37.089Z,97.20
2018-07-13T00:20:05.892Z,97.10
2018-07-13T00:22:34.498Z,97.40
2018-07-13T00:25:03.021Z,97.50
2018-07-13T00:27:31.566Z,97.50
2018-07-13T00:30:00.134Z,97.70
2018-07-13T00:32:28.651Z,97.70
2018-07-13T00:34:57.173Z,97.70
2018-07-13T00:37:29.899Z,97.90
2018-07-13T00:39:58.452Z,97.90
2018-07-13T00:42:26.992Z,98.00
2018-07-13T00:44:55.503Z,97.90
2018-07-13T00:47:24.021Z,98.10
2018-07-13T00:49:52.602Z,98.40
2018-07-13T00:52:21.161Z,98.40
2018-07-13T00:54:49.665Z,98.40
2018-07-13T00:57:18.258Z,98.60
2018-07-13T00:59:46.791Z,98.40
2018-07-13T01:02:15.315Z,98.80
2018-07-13T01:04:43.893Z,98.80
2018-07-13T01:07:12.514Z,98.70
2018-07-13T01:09:41.037Z,98.80
2018-07-13T01:12:10.060Z,98.80
2018-07-13T01:14:39.138Z,98.90
2018-07-13T01:17:07.700Z,99.20
2018-07-13T01:19:36.253Z,99.30
2018-07-13T01:22:04.874Z,99.40
2018-07-13T01:24:33.398Z,99.30
2018-07-13T01:27:01.931Z,99.50
2018-07-13T01:29:30.496Z,99.70
2018-07-13T01:31:59.641Z,99.80
2018-07-13T01:34:28.194Z,99.90
2018-07-13T01:36:56.701Z,99.70
2018-07-13T01:39:25.334Z,99.80
2018-07-13T01:41:53.901Z,99.90
2018-07-13T01:44:22.410Z,99.90
2018-07-13T01:46:50.958Z,99.90
2018-07-13T01:49:19.489Z,99.90
2018-07-13T01:51:48.033Z,99.90
2018-07-13T01:54:17.182Z,99.90
2018-07-13T01:56:46.688Z,99.90
2018-07-13T01:59:15.213Z,99.90
2018-07-13T02:01:43.715Z,99.90
2018-07-13T02:04:12.233Z,99.90
2018-07-13T02:06:40.905Z,99.90
2018-07-13T02:09:10.457Z,99.90
2018-07-13T02:11:39.010Z,99.90
2018-07-13T02:14:08.271Z,99.90
2018-07-13T02:16:36.816Z,99.90
2018-07-13T02:19:06.965Z,99.90
2018-07-13T02:21:35.527Z,99.90
2018-07-13T02:24:04.042Z,99.90
2018-07-13T02:26:32.672Z,99.90
2018-07-13T02:29:01.197Z,99.90
2018-07-13T02:31:29.923Z,99.90
2018-07-13T02:33:58.487Z,99.90
2018-07-13T02:36:27.037Z,99.90
2018-07-13T02:38:55.573Z,99.90
2018-07-13T02:43:52.789Z,99.90
2018-07-13T02:46:21.316Z,99.90
2018-07-13T02:48:50.056Z,99.90
2018-07-13T02:51:18.681Z,99.90
2018-07-13T02:53:47.195Z,99.90
2018-07-13T02:56:16.085Z,99.90
2018-07-13T02:58:44.616Z,99.90
2018-07-13T03:01:13.125Z,99.90
2018-07-13T03:03:41.658Z,99.90
2018-07-13T03:06:10.190Z,99.90
2018-07-13T03:11:07.201Z,99.90
2018-07-13T03:13:35.829Z,99.90
2018-07-13T03:16:04.482Z,99.90
2018-07-13T03:18:33.371Z,99.90
2018-07-13T03:21:02.070Z,99.90
2018-07-13T03:23:32.676Z,99.90
2018-07-13T03:26:01.225Z,99.90
2018-07-13T03:28:29.741Z,99.90
2018-07-13T03:30:58.285Z,99.90
2018-07-13T03:35:55.086Z,99.90
2018-07-13T03:38:23.708Z,99.90
2018-07-13T03:40:52.247Z,99.90
2018-07-13T03:43:21.761Z,99.90
2018-07-13T03:45:50.335Z,99.90
2018-07-13T03:48:18.868Z,99.90
2018-07-13T03:50:47.493Z,99.90
2018-07-13T03:55:45.506Z,99.90
2018-07-13T03:58:14.049Z,99.90
2018-07-13T04:00:43.195Z,99.90
2018-07-13T04:03:12.205Z,99.90
2018-07-13T04:05:40.719Z,99.90
2018-07-13T04:08:09.374Z,99.90
2018-07-13T04:10:37.965Z,99.90
2018-07-13T04:13:06.621Z,99.90
2018-07-13T04:15:35.821Z,99.90
2018-07-13T04:18:04.406Z,99.90
2018-07-13T04:20:33.493Z,99.90
2018-07-13T04:23:02.081Z,99.90
2018-07-13T04:25:30.650Z,99.90
2018-07-13T04:27:59.169Z,99.90
2018-07-13T04:30:27.700Z,99.90
2018-07-13T04:32:56.222Z,99.90
2018-07-13T04:35:24.756Z,99.90
2018-07-13T04:40:21.553Z,99.90
2018-07-13T04:42:50.147Z,99.90
2018-07-13T04:45:18.778Z,99.90
2018-07-13T04:47:47.369Z,99.90
2018-07-13T04:50:16.054Z,99.90
2018-07-13T04:52:44.532Z,99.90
2018-07-13T04:55:13.100Z,99.90
2018-07-13T04:57:41.650Z,99.90
2018-07-13T05:00:10.270Z,99.90
2018-07-13T05:02:38.901Z,99.90
2018-07-13T05:05:07.823Z,99.90
2018-07-13T05:07:36.441Z,99.90
2018-07-13T05:12:33.357Z,99.90
2018-07-13T05:15:01.890Z,99.90
2018-07-13T05:17:31.528Z,99.90
2018-07-13T05:20:00.056Z,99.90
2018-07-13T05:22:28.590Z,99.90
2018-07-13T05:24:57.169Z,99.90
2018-07-13T05:27:25.911Z,99.90
2018-07-13T05:29:54.469Z,99.90
2018-07-13T05:32:22.995Z,99.90
2018-07-13T05:34:51.573Z,99.90
2018-07-13T05:37:20.171Z,99.90
2018-07-13T05:39:49.054Z,99.90
2018-07-13T05:42:17.892Z,99.90
2018-07-13T05:44:46.453Z,99.90
2018-07-13T05:47:15.877Z,99.90
2018-07-13T05:49:44.501Z,99.90
2018-07-13T05:52:13.122Z,99.90
2018-07-13T05:54:41.732Z,99.90
2018-07-13T05:57:10.359Z,99.90
2018-07-13T05:59:38.938Z,99.90
2018-07-13T06:02:07.575Z,99.90
2018-07-13T06:04:36.150Z,99.90
2018-07-13T06:07:04.731Z,99.90
2018-07-13T06:09:33.865Z,99.90
2018-07-13T06:12:02.567Z,99.90
2018-07-13T06:14:31.170Z,99.90
2018-07-13T06:16:59.722Z,99.90
2018-07-13T06:19:28.297Z,99.90
2018-07-13T06:21:57.521Z,99.90
2018-07-13T06:24:26.138Z,99.90
2018-07-13T06:26:54.766Z,99.90
2018-07-13T06:29:23.408Z,99.90
2018-07-13T06:31:52.015Z,99.90
2018-07-13T06:34:21.472Z,99.90
2018-07-13T06:36:50.028Z,99.90
2018-07-13T06:39:19.229Z,99.90
2018-07-13T06:41:48.698Z,99.90
2018-07-13T06:44:17.266Z,99.60
2018-07-13T06:46:47.355Z,98.70
2018-07-13T06:49:16.633Z,99.00
2018-07-13T06:51:47.301Z,98.40
2018-07-13T06:54:16.261Z,98.40
2018-07-13T06:56:44.793Z,98.60
2018-07-13T06:59:20.650Z,98.60
2018-07-13T07:01:49.482Z,98.20
2018-07-13T07:04:23.697Z,98.10
2018-07-13T07:06:55.560Z,97.70
2018-07-13T07:09:24.901Z,97.50
2018-07-13T07:13:07.885Z,97.80
2018-07-13T07:15:36.718Z,97.80
2018-07-13T07:18:05.254Z,97.30
2018-07-13T07:20:34.808Z,97.10
2018-07-13T07:23:03.358Z,97.10
2018-07-13T07:25:32.005Z,96.70
2018-07-13T07:28:00.517Z,96.60
2018-07-13T07:30:29.118Z,96.40
2018-07-13T07:32:57.645Z,94.90
2018-07-13T07:35:26.472Z,94.40
2018-07-13T07:37:55.973Z,93.40
2018-07-13T07:40:24.574Z,93.00
2018-07-13T07:42:53.105Z,92.30
2018-07-13T07:45:21.629Z,92.20
2018-07-13T07:47:50.185Z,92.10
2018-07-13T07:50:18.732Z,92.30
2018-07-13T07:52:47.263Z,92.80
2018-07-13T07:55:16.654Z,92.70
2018-07-13T07:57:45.474Z,91.30
2018-07-13T08:00:14.010Z,90.90
2018-07-13T08:02:42.586Z,89.50
2018-07-13T08:05:11.166Z,89.00
2018-07-13T08:07:39.911Z,87.40
2018-07-13T08:10:08.429Z,87.50
2018-07-13T08:12:37.458Z,84.10
2018-07-13T08:15:06.047Z,85.30
2018-07-13T08:17:34.651Z,86.20
2018-07-13T08:20:04.161Z,82.60
2018-07-13T08:22:37.758Z,83.00
2018-07-13T08:25:07.209Z,84.80
2018-07-13T08:27:46.545Z,84.60
2018-07-13T08:30:22.582Z,86.00
2018-07-13T08:32:51.881Z,84.40
2018-07-13T08:35:20.666Z,79.90
2018-07-13T08:37:49.567Z,79.10
2018-07-13T08:40:19.100Z,79.50
2018-07-13T08:42:47.642Z,79.00
2018-07-13T08:45:16.201Z,78.60
2018-07-13T08:47:44.725Z,79.50
2018-07-13T08:50:13.329Z,79.70
2018-07-13T08:52:41.809Z,79.00
2018-07-13T08:55:12.882Z,78.80
2018-07-13T08:57:43.410Z,79.80
2018-07-13T09:00:11.929Z,79.80
2018-07-13T09:02:41.346Z,80.50
2018-07-13T09:05:10.485Z,82.70
2018-07-13T09:07:39.196Z,83.50
2018-07-13T09:12:36.369Z,77.40
2018-07-13T09:15:04.889Z,78.50
2018-07-13T09:17:33.766Z,76.70
2018-07-13T09:20:02.305Z,75.80
2018-07-13T09:22:30.874Z,73.40
2018-07-13T09:24:59.514Z,76.00
2018-07-13T09:27:28.051Z,76.50
2018-07-13T09:29:56.563Z,75.70
2018-07-13T09:32:25.106Z,77.00
2018-07-13T09:34:53.699Z,74.80
2018-07-13T09:37:22.233Z,70.00
2018-07-13T09:39:51.361Z,71.20
2018-07-13T09:42:19.887Z,72.90
2018-07-13T09:44:48.404Z,73.90
2018-07-13T09:47:17.086Z,70.50
2018-07-13T09:49:45.569Z,70.70
2018-07-13T09:52:14.146Z,70.80
2018-07-13T09:54:43.657Z,71.30
2018-07-13T09:57:12.480Z,69.30
2018-07-13T09:59:41.518Z,70.20
2018-07-13T10:02:10.074Z,68.90
2018-07-13T10:04:38.633Z,66.80
2018-07-13T10:07:07.345Z,66.50
2018-07-13T10:09:35.909Z,67.50
2018-07-13T10:12:04.581Z,68.20
2018-07-13T10:17:01.313Z,63.80
2018-07-13T10:19:29.870Z,63.10
2018-07-13T10:21:58.677Z,63.60
2018-07-13T10:24:28.052Z,65.10
2018-07-13T10:26:58.126Z,66.00
2018-07-13T10:29:31.692Z,65.90
2018-07-13T10:32:00.982Z,66.00
2018-07-13T10:34:30.139Z,64.50
2018-07-13T10:37:01.108Z,63.40
2018-07-13T10:39:30.561Z,62.10
2018-07-13T10:44:27.302Z,62.40
2018-07-13T10:46:55.885Z,66.40
2018-07-13T10:49:24.531Z,66.10
2018-07-13T10:51:53.374Z,67.10
2018-07-13T10:56:50.765Z,65.20
2018-07-13T10:59:19.308Z,64.40
2018-07-13T11:01:47.834Z,62.20
2018-07-13T11:04:17.676Z,61.90
2018-07-13T11:06:46.236Z,63.50
2018-07-13T11:09:14.793Z,64.70
2018-07-13T11:11:43.352Z,63.80
2018-07-13T11:14:11.869Z,63.40
2018-07-13T11:16:41.168Z,63.30
2018-07-13T11:19:09.721Z,61.20
2018-07-13T11:21:38.874Z,61.20
2018-07-13T11:24:07.459Z,59.80
2018-07-13T11:26:37.046Z,60.00
2018-07-13T11:29:05.609Z,60.30
2018-07-13T11:31:34.799Z,61.90
2018-07-13T11:34:04.214Z,62.20
2018-07-13T11:36:32.766Z,61.60
2018-07-13T11:39:01.314Z,59.70
2018-07-13T11:41:29.850Z,60.60
2018-07-13T11:43:59.116Z,58.90
2018-07-13T11:46:27.671Z,58.70
2018-07-13T11:48:56.194Z,59.80
2018-07-13T11:51:24.842Z,60.10
2018-07-13T11:53:53.693Z,58.90
2018-07-13T11:56:22.914Z,59.10
2018-07-13T11:58:51.441Z,57.20
2018-07-13T12:01:19.998Z,58.00
2018-07-13T12:03:48.510Z,56.90
2018-07-13T12:06:17.058Z,57.10
2018-07-13T12:08:48.253Z,58.20
2018-07-13T12:11:17.276Z,58.00
2018-07-13T12:13:46.049Z,57.10
2018-07-13T12:16:15.549Z,56.80
2018-07-13T12:18:44.106Z,57.60
2018-07-13T12:21:12.646Z,57.10
2018-07-13T12:23:41.519Z,56.90
2018-07-13T12:26:10.073Z,56.50
2018-07-13T12:28:38.603Z,55.80
2018-07-13T12:31:08.265Z,55.50
2018-07-13T12:33:36.794Z,55.50
2018-07-13T12:36:06.564Z,54.40
2018-07-13T12:38:35.089Z,55.70
2018-07-13T12:41:03.617Z,55.40
2018-07-13T12:43:32.141Z,55.60
2018-07-13T12:46:00.707Z,55.60
2018-07-13T12:48:29.218Z,54.90
2018-07-13T12:50:57.845Z,54.80
2018-07-13T12:53:26.396Z,55.00
2018-07-13T12:55:55.325Z,54.70
2018-07-13T12:58:23.868Z,55.00
2018-07-13T13:00:52.508Z,54.40
2018-07-13T13:03:21.074Z,55.00
2018-07-13T13:05:49.610Z,53.30
2018-07-13T13:08:18.233Z,54.00
2018-07-13T13:10:46.873Z,53.60
2018-07-13T13:15:46.242Z,54.90
2018-07-13T13:18:14.785Z,54.30
2018-07-13T13:20:43.349Z,53.80
2018-07-13T13:23:14.281Z,54.10
2018-07-13T13:25:44.238Z,54.10
2018-07-13T13:28:13.342Z,55.00
2018-07-13T13:30:42.019Z,54.20
2018-07-13T13:33:10.554Z,55.50
2018-07-13T13:35:39.245Z,55.40
2018-07-13T13:38:07.825Z,55.80
2018-07-13T13:40:36.546Z,56.60
2018-07-13T13:43:05.062Z,56.30
2018-07-13T13:45:33.690Z,56.90
2018-07-13T13:48:02.206Z,56.30
2018-07-13T13:50:30.940Z,56.70
2018-07-13T13:52:59.474Z,56.80
2018-07-13T13:55:28.031Z,57.20
2018-07-13T13:57:56.550Z,55.50
2018-07-13T14:00:25.074Z,55.60
2018-07-13T14:02:53.602Z,56.00
2018-07-13T14:05:22.319Z,55.30
2018-07-13T14:07:50.928Z,55.10
2018-07-13T14:10:19.552Z,55.80
2018-07-13T14:12:48.117Z,54.80
2018-07-13T14:15:16.661Z,55.50
2018-07-13T14:17:45.190Z,55.60
2018-07-13T14:20:13.718Z,55.30
2018-07-13T14:22:43.275Z,55.40
2018-07-13T14:25:11.819Z,55.70
2018-07-13T14:27:40.420Z,55.60
2018-07-13T14:30:09.541Z,55.40
2018-07-13T14:32:38.238Z,55.40
2018-07-13T14:35:07.126Z,56.40
2018-07-13T14:37:36.470Z,56.60
2018-07-13T14:40:05.005Z,57.00
2018-07-13T14:42:33.558Z,56.50
2018-07-13T14:45:02.074Z,56.80
2018-07-13T14:47:30.950Z,57.20
2018-07-13T14:50:00.614Z,57.60
2018-07-13T14:52:29.181Z,58.00
2018-07-13T14:54:57.722Z,58.30
2018-07-13T14:57:26.571Z,58.70
2018-07-13T14:59:55.098Z,60.00
2018-07-13T15:02:23.634Z,59.40
2018-07-13T15:04:52.876Z,59.30
2018-07-13T15:07:21.429Z,59.70
2018-07-13T15:09:50.407Z,59.60
2018-07-13T15:12:18.933Z,59.90
2018-07-13T15:17:16.187Z,61.70
2018-07-13T15:19:46.077Z,62.00
2018-07-13T15:22:14.666Z,62.70
2018-07-13T15:24:43.198Z,62.20
2018-07-13T15:27:11.718Z,61.60
2018-07-13T15:29:40.290Z,62.20
2018-07-13T15:32:08.840Z,62.30
2018-07-13T15:34:37.566Z,62.80
2018-07-13T15:37:06.115Z,63.10
2018-07-13T15:42:02.939Z,62.30
2018-07-13T15:44:31.485Z,63.10
2018-07-13T15:46:59.995Z,62.90
2018-07-13T15:49:29.837Z,63.10
2018-07-13T15:51:59.341Z,63.20
2018-07-13T15:54:28.707Z,63.60
2018-07-13T15:56:57.602Z,63.40
2018-07-13T15:59:26.345Z,64.00
2018-07-13T16:01:57.045Z,64.50
2018-07-13T16:04:25.605Z,64.40
2018-07-13T16:06:55.089Z,64.40
2018-07-13T16:09:24.235Z,63.70
2018-07-13T16:11:53.110Z,64.00
2018-07-13T16:14:22.007Z,64.00
2018-07-13T16:16:50.901Z,64.50
2018-07-13T16:19:19.426Z,63.70
2018-07-13T16:21:48.202Z,64.30
2018-07-13T16:24:16.822Z,63.90
2018-07-13T16:26:45.340Z,64.10
2018-07-13T16:29:14.892Z,64.30
2018-07-13T16:31:43.423Z,64.70
2018-07-13T16:34:12.106Z,65.00
2018-07-13T16:36:40.671Z,63.80
2018-07-13T16:39:09.210Z,64.10
2018-07-13T16:41:37.754Z,63.50
2018-07-13T16:44:06.400Z,64.10
2018-07-13T16:46:35.033Z,64.70
2018-07-13T16:49:03.584Z,65.00
2018-07-13T16:51:32.162Z,65.30
2018-07-13T16:54:00.719Z,66.40
2018-07-13T16:56:29.276Z,66.40
2018-07-13T16:58:57.828Z,65.90
2018-07-13T17:01:26.356Z,66.40
2018-07-13T17:03:55.683Z,67.50
2018-07-13T17:06:24.229Z,66.90
2018-07-13T17:08:52.787Z,66.70
2018-07-13T17:11:21.915Z,66.40
2018-07-13T17:13:51.114Z,67.20
2018-07-13T17:16:19.645Z,69.10
2018-07-13T17:18:49.938Z,67.80
2018-07-13T17:21:18.460Z,70.20
2018-07-13T17:23:49.238Z,70.60
2018-07-13T17:26:17.831Z,70.50
2018-07-13T17:28:46.332Z,71.40
2018-07-13T17:31:15.199Z,71.70
2018-07-13T17:33:44.585Z,71.10
2018-07-13T17:36:14.212Z,73.30
2018-07-13T17:38:43.340Z,73.10
2018-07-13T17:41:11.947Z,73.30
2018-07-13T17:43:40.595Z,72.10
2018-07-13T17:46:10.340Z,73.30
2018-07-13T17:48:39.439Z,72.50
2018-07-13T17:51:09.166Z,73.20
2018-07-13T17:53:39.355Z,74.90
2018-07-13T17:56:07.927Z,74.40
2018-07-13T17:58:36.488Z,74.00
2018-07-13T18:01:06.160Z,76.40
2018-07-13T18:03:34.596Z,77.30
2018-07-13T18:06:03.146Z,75.40
2018-07-13T18:08:32.275Z,75.00
2018-07-13T18:11:00.802Z,76.10
2018-07-13T18:13:29.329Z,75.30
2018-07-13T18:15:57.873Z,75.60
2018-07-13T18:18:26.406Z,76.60
2018-07-13T18:20:54.945Z,78.10
2018-07-13T18:23:23.671Z,78.40
2018-07-13T18:25:52.201Z,77.20
2018-07-13T18:28:20.738Z,78.30
2018-07-13T18:30:49.922Z,76.80
2018-07-13T18:33:18.503Z,77.70
2018-07-13T18:38:15.281Z,79.70
2018-07-13T18:40:43.838Z,80.30
2018-07-13T18:43:12.382Z,79.60
2018-07-13T18:45:41.772Z,79.30
2018-07-13T18:48:10.314Z,79.00
2018-07-13T18:50:39.894Z,80.90
2018-07-13T18:53:08.421Z,81.00
2018-07-13T18:55:36.996Z,81.70
2018-07-13T18:58:05.795Z,81.80
2018-07-13T19:00:34.371Z,82.80
2018-07-13T19:03:03.542Z,82.20
2018-07-13T19:05:32.102Z,82.60
2018-07-13T19:08:00.614Z,83.20
2018-07-13T19:10:29.314Z,84.00
2018-07-13T19:12:58.006Z,83.30
2018-07-13T19:15:28.394Z,83.50
2018-07-13T19:17:57.114Z,84.50
2018-07-13T19:20:25.649Z,84.70
2018-07-13T19:22:54.234Z,84.80
2018-07-13T19:25:23.640Z,84.50
2018-07-13T19:27:52.207Z,84.40
2018-07-13T19:30:20.791Z,84.70
2018-07-13T19:32:49.373Z,85.30
2018-07-13T19:35:19.218Z,85.30
2018-07-13T19:37:47.906Z,85.40
2018-07-13T19:40:16.464Z,86.10
2018-07-13T19:42:45.610Z,85.20
2018-07-13T19:45:15.131Z,85.50
2018-07-13T19:47:43.766Z,85.90
2018-07-13T19:50:12.323Z,85.80
2018-07-13T19:52:40.838Z,86.00
2018-07-13T19:55:09.945Z,86.30
2018-07-13T19:57:38.578Z,85.40
2018-07-13T20:00:07.140Z,85.50
2018-07-13T20:02:35.742Z,86.30
2018-07-13T20:05:04.322Z,86.30
2018-07-13T20:07:32.978Z,86.40
2018-07-13T20:10:01.646Z,87.40
2018-07-13T20:12:30.197Z,87.20
2018-07-13T20:14:58.802Z,88.00
2018-07-13T20:17:27.441Z,88.20
2018-07-13T20:19:56.015Z,88.00
2018-07-13T20:22:24.565Z,87.90
2018-07-13T20:24:54.097Z,87.80
2018-07-13T20:27:22.942Z,88.00
2018-07-13T20:29:51.472Z,88.30
2018-07-13T20:32:19.992Z,87.80
2018-07-13T20:34:48.513Z,89.10
2018-07-13T20:37:17.241Z,88.20
2018-07-13T20:39:45.796Z,89.30
2018-07-13T20:42:15.478Z,88.80
2018-07-13T20:44:45.417Z,88.70
2018-07-13T20:47:15.358Z,88.60
2018-07-13T20:49:44.129Z,89.30
2018-07-13T20:52:12.704Z,88.60
2018-07-13T20:54:42.589Z,88.30
2018-07-13T20:57:11.150Z,88.60
2018-07-13T20:59:39.974Z,89.90
2018-07-13T21:02:08.558Z,88.60
2018-07-13T21:04:37.191Z,88.80
2018-07-13T21:07:06.838Z,89.70
2018-07-13T21:09:35.407Z,90.00
2018-07-13T21:12:04.812Z,89.80
2018-07-13T21:14:34.041Z,90.00
2018-07-13T21:17:02.598Z,90.00
2018-07-13T21:19:31.118Z,90.10
2018-07-13T21:21:59.653Z,90.60
2018-07-13T21:24:28.214Z,90.20
2018-07-13T21:26:56.821Z,90.00
2018-07-13T21:29:25.317Z,90.20
2018-07-13T21:31:53.931Z,90.00
2018-07-13T21:34:22.471Z,90.40
2018-07-13T21:36:51.691Z,90.50
2018-07-13T21:39:20.209Z,90.50
2018-07-13T21:41:48.975Z,90.80
2018-07-13T21:44:17.534Z,91.00
2018-07-13T21:46:46.283Z,91.10
2018-07-13T21:49:14.819Z,91.10
2018-07-13T21:51:43.398Z,91.00
2018-07-13T21:54:11.957Z,91.20
2018-07-13T21:56:40.867Z,91.20
2018-07-13T21:59:09.410Z,90.90
2018-07-13T22:01:38.317Z,91.10
2018-07-13T22:04:06.829Z,91.80
2018-07-13T22:06:35.362Z,91.00
2018-07-13T22:09:04.415Z,90.90
2018-07-13T22:11:32.927Z,91.20
2018-07-13T22:14:01.446Z,91.20
2018-07-13T22:16:30.490Z,91.20
2018-07-13T22:18:59.033Z,91.30
2018-07-13T22:21:27.535Z,91.60
2018-07-13T22:23:56.039Z,91.70
2018-07-13T22:26:24.626Z,91.50
2018-07-13T22:28:53.101Z,91.80
2018-07-13T22:31:21.630Z,92.10
2018-07-13T22:33:50.129Z,92.50
2018-07-13T22:36:18.650Z,92.40
2018-07-13T22:38:48.111Z,92.30
2018-07-13T22:41:16.610Z,92.30
2018-07-13T22:43:45.240Z,92.80
2018-07-13T22:46:13.789Z,92.10
2018-07-13T22:48:42.309Z,92.10
2018-07-13T22:51:10.884Z,92.10
2018-07-13T22:53:39.384Z,92.10
2018-07-13T22:56:08.713Z,92.20
2018-07-13T22:58:37.217Z,92.30
2018-07-13T23:01:05.745Z,92.50
2018-07-13T23:03:34.282Z,92.50
2018-07-13T23:06:03.038Z,92.40
2018-07-13T23:08:31.577Z,92.40
2018-07-13T23:11:00.449Z,92.80
2018-07-13T23:13:29.253Z,93.00
2018-07-13T23:15:58.105Z,92.90
2018-07-13T23:18:26.629Z,92.70
2018-07-13T23:20:55.735Z,93.10
2018-07-13T23:23:24.298Z,92.80
2018-07-13T23:25:52.763Z,92.80
2018-07-13T23:28:21.361Z,92.90
2018-07-13T23:30:49.883Z,92.90
2018-07-13T23:33:18.420Z,93.00
2018-07-13T23:35:47.450Z,93.20
2018-07-13T23:38:16.014Z,93.50
2018-07-13T23:40:44.549Z,93.50
2018-07-13T23:43:13.197Z,93.40
2018-07-13T23:48:09.958Z,93.80
2018-07-13T23:50:38.471Z,94.30
2018-07-13T23:53:06.994Z,94.10
2018-07-13T23:55:35.518Z,94.30
2018-07-13T23:58:04.169Z,94.40
